Time,TemperatureF,DewpointF,PressureIn,WindDirection,WindDirectionDegrees,WindSpeedMPH,WindSpeedGustMPH,Humidity,HourlyPrecipIn,Conditions,Clouds,dailyrainin,SoftwareType,DateUTC
2013-01-16 00:00:00,43.5,19.6,30.40,NNW,327,2.7,3.8,38,0.00,,CLR,0.00,VWS V14.01,2013-01-16 08:00:00,
2013-01-16 00:10:00,43.3,19.5,30.37,West,267,0.0,3.2,38,0.00,,CLR,0.00,VWS V14.01,2013-01-16 08:10:00,
2013-01-16 00:20:00,43.2,19.3,30.37,West,267,0.0,0.0,38,0.00,,CLR,0.00,VWS V14.01,2013-01-16 08:20:00,
2013-01-16 00:30:00,42.8,19.0,30.37,NNW,328,3.8,3.8,38,0.00,,CLR,0.00,VWS V14.01,2013-01-16 08:30:00,
2013-01-16 00:40:00,42.6,19.4,30.37,NNW,332,0.0,5.4,39,0.00,,CLR,0.00,VWS V14.01,2013-01-16 08:40:00,
2013-01-16 00:50:00,42.4,19.2,30.37,West,265,0.0,3.2,39,0.00,,CLR,0.00,VWS V14.01,2013-01-16 08:50:00,
2013-01-16 01:00:00,42.4,19.2,30.37,West,273,0.0,0.0,39,0.00,,CLR,0.00,VWS V14.01,2013-01-16 09:00:00,
2013-01-16 01:10:00,42.4,19.2,30.37,SW,231,3.2,4.3,39,0.00,,CLR,0.00,VWS V14.01,2013-01-16 09:10:00,
2013-01-16 01:20:00,42.4,19.2,30.37,WSW,249,0.0,3.8,39,0.00,,CLR,0.00,VWS V14.01,2013-01-16 09:20:00,
2013-01-16 01:30:00,42.4,19.2,30.37,WNW,285,0.0,3.2,39,0.00,,CLR,0.00,VWS V14.01,2013-01-16 09:30:00,
2013-01-16 01:40:00,42.8,19.0,30.37,WNW,283,3.2,4.3,38,0.00,,CLR,0.00,VWS V14.01,2013-01-16 09:40:00,
2013-01-16 01:50:00,43.2,19.3,30.37,WNW,288,5.9,5.9,38,0.00,,CLR,0.00,VWS V14.01,2013-01-16 09:50:00,
2013-01-16 02:00:00,44.1,20.1,30.37,WNW,284,3.2,5.9,38,0.00,,CLR,0.00,VWS V14.01,2013-01-16 10:00:00,
2013-01-16 02:10:00,44.6,20.6,30.37,NW,309,3.2,4.8,38,0.00,,CLR,0.00,VWS V14.01,2013-01-16 10:10:00,
2013-01-16 02:20:00,44.8,20.7,30.37,West,268,4.8,4.8,38,0.00,,CLR,0.00,VWS V14.01,2013-01-16 10:20:00,
2013-01-16 02:30:00,45.0,20.9,30.37,WNW,286,4.3,4.8,38,0.00,,CLR,0.00,VWS V14.01,2013-01-16 10:30:00,
2013-01-16 02:40:00,45.1,21.1,30.37,East,98,3.8,4.8,38,0.00,,CLR,0.00,VWS V14.01,2013-01-16 10:40:00,
2013-01-16 02:50:00,44.8,20.7,30.37,ENE,68,0.0,4.8,38,0.00,,CLR,0.00,VWS V14.01,2013-01-16 10:50:00,
2013-01-16 03:00:00,43.7,19.8,30.37,NNW,341,4.8,5.9,38,0.00,,CLR,0.00,VWS V14.01,2013-01-16 11:00:00,
2013-01-16 03:10:00,43.0,19.1,30.37,NW,325,6.4,6.4,38,0.00,,CLR,0.00,VWS V14.01,2013-01-16 11:10:00,
2013-01-16 03:20:00,42.8,19.0,30.37,WNW,298,3.2,6.4,38,0.00,,CLR,0.00,VWS V14.01,2013-01-16 11:20:00,
2013-01-16 03:30:00,42.6,19.4,30.37,WNW,283,0.0,4.8,39,0.00,,CLR,0.00,VWS V14.01,2013-01-16 11:30:00,
2013-01-16 03:40:00,42.4,19.2,30.37,NW,306,0.0,3.8,39,0.00,,CLR,0.00,VWS V14.01,2013-01-16 11:40:00,
2013-01-16 03:50:00,42.3,19.1,30.37,West,274,0.0,4.8,39,0.00,,CLR,0.00,VWS V14.01,2013-01-16 11:50:00,
2013-01-16 04:00:00,42.3,19.1,30.37,West,279,4.8,4.8,39,0.00,,CLR,0.00,VWS V14.01,2013-01-16 12:00:00,
2013-01-16 04:10:00,42.3,19.1,30.37,NW,312,3.2,4.8,39,0.00,,CLR,0.00,VWS V14.01,2013-01-16 12:10:00,
2013-01-16 04:20:00,42.4,19.2,30.37,WNW,297,2.7,4.3,39,0.00,,CLR,0.00,VWS V14.01,2013-01-16 12:20:00,
2013-01-16 04:30:00,42.4,19.2,30.37,NW,316,3.2,4.8,39,0.00,,CLR,0.00,VWS V14.01,2013-01-16 12:30:00,
2013-01-16 04:40:00,42.4,19.2,30.35,NW,308,3.2,3.8,39,0.00,,CLR,0.00,VWS V14.01,2013-01-16 12:40:00,
2013-01-16 04:50:00,42.4,19.2,30.35,WNW,298,4.3,4.8,39,0.00,,CLR,0.00,VWS V14.01,2013-01-16 12:50:00,
2013-01-16 05:00:00,42.8,19.0,30.35,WNW,299,0.0,5.4,38,0.00,,CLR,0.00,VWS V14.01,2013-01-16 13:00:00,
2013-01-16 05:10:00,43.0,19.1,30.35,WNW,293,0.0,3.8,38,0.00,,CLR,0.00,VWS V14.01,2013-01-16 13:10:00,
2013-01-16 05:20:00,42.8,19.0,30.35,SW,232,0.0,4.3,38,0.00,,CLR,0.00,VWS V14.01,2013-01-16 13:20:00,
2013-01-16 05:30:00,42.6,19.4,30.35,NNW,327,5.9,5.9,39,0.00,,CLR,0.00,VWS V14.01,2013-01-16 13:30:00,
2013-01-16 05:40:00,43.0,19.1,30.35,North,351,3.8,6.4,38,0.00,,CLR,0.00,VWS V14.01,2013-01-16 13:40:00,
2013-01-16 05:50:00,43.7,19.8,30.35,NNW,328,4.8,6.4,38,0.00,,CLR,0.00,VWS V14.01,2013-01-16 13:50:00,
2013-01-16 06:00:00,45.1,21.1,30.35,NNW,337,3.8,7.5,38,0.00,,CLR,0.00,VWS V14.01,2013-01-16 14:00:00,
2013-01-16 06:10:00,46.9,22.0,30.35,North,0,4.8,9.1,37,0.00,,CLR,0.00,VWS V14.01,2013-01-16 14:10:00,
2013-01-16 06:20:00,48.4,23.3,30.35,NNW,336,3.8,7.5,37,0.00,,CLR,0.00,VWS V14.01,2013-01-16 14:20:00,
2013-01-16 06:30:00,48.6,23.5,30.35,North,351,5.9,7.0,37,0.00,,CLR,0.00,VWS V14.01,2013-01-16 14:30:00,
2013-01-16 06:40:00,48.4,23.3,30.35,North,10,4.3,7.0,37,0.00,,CLR,0.00,VWS V14.01,2013-01-16 14:40:00,
2013-01-16 06:50:00,48.0,23.0,30.35,North,351,6.4,6.4,37,0.00,,CLR,0.00,VWS V14.01,2013-01-16 14:50:00,
2013-01-16 07:00:00,48.0,23.0,30.35,NNW,337,3.8,7.0,37,0.00,,CLR,0.00,VWS V14.01,2013-01-16 15:00:00,
2013-01-16 07:10:00,47.8,22.9,30.35,NNW,338,3.8,7.0,37,0.00,,CLR,0.00,VWS V14.01,2013-01-16 15:10:00,
2013-01-16 07:20:00,47.5,22.5,30.37,North,351,3.2,5.9,37,0.00,,CLR,0.00,VWS V14.01,2013-01-16 15:20:00,
2013-01-16 07:30:00,47.1,22.2,30.37,NNW,337,3.8,4.8,37,0.00,,CLR,0.00,VWS V14.01,2013-01-16 15:30:00,
2013-01-16 07:40:00,47.3,22.4,30.37,NNW,333,7.0,7.0,37,0.00,,CLR,0.00,VWS V14.01,2013-01-16 15:40:00,
2013-01-16 07:50:00,48.4,23.3,30.37,NNE,15,4.3,7.5,37,0.00,,CLR,0.00,VWS V14.01,2013-01-16 15:50:00,
2013-01-16 08:00:00,50.7,25.4,30.37,NNE,13,4.3,9.1,37,0.00,,CLR,0.00,VWS V14.01,2013-01-16 16:00:00,
2013-01-16 08:10:00,51.8,25.7,30.37,North,10,4.8,7.5,36,0.00,,CLR,0.00,VWS V14.01,2013-01-16 16:10:00,
2013-01-16 08:20:00,52.5,26.4,30.37,North,356,3.8,7.5,36,0.00,,CLR,0.00,VWS V14.01,2013-01-16 16:20:00,
2013-01-16 08:30:00,54.5,28.1,30.37,NNE,23,9.7,11.0,36,0.00,,CLR,0.00,VWS V14.01,2013-01-16 16:30:00,
2013-01-16 08:40:00,56.1,28.9,30.37,North,356,9.1,13.7,35,0.00,,CLR,0.00,VWS V14.01,2013-01-16 16:40:00,
2013-01-16 08:50:00,56.7,29.3,30.37,NNE,13,5.9,9.9,35,0.00,,CLR,0.00,VWS V14.01,2013-01-16 16:50:00,
2013-01-16 09:00:00,56.8,29.5,30.37,NNE,24,7.5,9.9,35,0.00,,CLR,0.00,VWS V14.01,2013-01-16 17:00:00,
2013-01-16 09:10:00,57.4,30.0,30.37,North,356,7.5,9.7,35,0.00,,CLR,0.00,VWS V14.01,2013-01-16 17:10:00,
2013-01-16 09:20:00,58.8,31.2,30.37,East,84,4.3,10.5,35,0.00,,CLR,0.00,VWS V14.01,2013-01-16 17:20:00,
2013-01-16 09:30:00,60.1,32.4,30.37,North,0,9.1,10.5,35,0.00,,CLR,0.00,VWS V14.01,2013-01-16 17:30:00,
2013-01-16 09:40:00,60.8,32.3,30.37,North,10,7.0,11.5,34,0.00,,CLR,0.00,VWS V14.01,2013-01-16 17:40:00,
2013-01-16 09:50:00,61.7,33.1,30.37,NNE,18,9.1,13.2,34,0.00,,CLR,0.00,VWS V14.01,2013-01-16 17:50:00,
2013-01-16 10:00:00,62.4,33.7,30.37,NNE,17,4.8,12.6,34,0.00,,CLR,0.00,VWS V14.01,2013-01-16 18:00:00,
2013-01-16 10:10:00,63.0,34.2,30.37,NNE,19,7.5,9.7,34,0.00,,CLR,0.00,VWS V14.01,2013-01-16 18:10:00,
2013-01-16 10:20:00,63.5,34.7,30.35,North,10,9.1,10.5,34,0.00,,CLR,0.00,VWS V14.01,2013-01-16 18:20:00,
2013-01-16 10:30:00,64.2,35.3,30.35,NE,44,4.8,9.1,34,0.00,,CLR,0.00,VWS V14.01,2013-01-16 18:30:00,
2013-01-16 10:40:00,65.1,35.3,30.35,NNE,25,6.4,10.5,33,0.00,,CLR,0.00,VWS V14.01,2013-01-16 18:40:00,
2013-01-16 10:50:00,66.2,36.3,30.35,ENE,75,7.5,9.9,33,0.00,,CLR,0.00,VWS V14.01,2013-01-16 18:50:00,
2013-01-16 11:00:00,67.5,37.4,30.35,ESE,102,0.0,8.1,33,0.00,,CLR,0.00,VWS V14.01,2013-01-16 19:00:00,
2013-01-16 11:10:00,68.7,38.5,30.32,South,181,2.7,7.0,33,0.00,,CLR,0.00,VWS V14.01,2013-01-16 19:10:00,
2013-01-16 11:20:00,70.2,39.0,30.32,SSE,165,0.0,4.8,32,0.00,,CLR,0.00,VWS V14.01,2013-01-16 19:20:00,
2013-01-16 11:30:00,70.5,39.3,30.32,South,172,0.0,4.8,32,0.00,,CLR,0.00,VWS V14.01,2013-01-16 19:30:00,
2013-01-16 11:40:00,72.0,40.5,30.32,SW,218,0.0,6.4,32,0.00,,CLR,0.00,VWS V14.01,2013-01-16 19:40:00,
2013-01-16 11:50:00,73.0,41.5,30.32,SW,233,2.7,6.4,32,0.00,,CLR,0.00,VWS V14.01,2013-01-16 19:50:00,
2013-01-16 12:00:00,72.7,41.2,30.32,South,182,0.0,7.5,32,0.00,,CLR,0.00,VWS V14.01,2013-01-16 20:00:00,
2013-01-16 12:10:00,72.3,40.8,30.29,NNE,30,3.2,7.5,32,0.00,,CLR,0.00,VWS V14.01,2013-01-16 20:10:00,
2013-01-16 12:20:00,73.6,41.1,30.29,East,98,4.8,7.0,31,0.00,,CLR,0.00,VWS V14.01,2013-01-16 20:20:00,
2013-01-16 12:30:00,73.6,41.1,30.29,East,86,4.8,8.1,31,0.00,,CLR,0.00,VWS V14.01,2013-01-16 20:30:00,
2013-01-16 12:40:00,73.2,41.6,30.26,NE,52,0.0,9.7,32,0.00,,CLR,0.00,VWS V14.01,2013-01-16 20:40:00,
2013-01-16 12:50:00,73.0,41.5,30.26,ESE,115,3.8,7.0,32,0.00,,CLR,0.00,VWS V14.01,2013-01-16 20:50:00,
2013-01-16 13:00:00,73.0,41.5,30.26,ENE,67,0.0,6.4,32,0.00,,CLR,0.00,VWS V14.01,2013-01-16 21:00:00,
2013-01-16 13:10:00,75.0,42.4,30.26,NNE,15,4.8,5.9,31,0.00,,CLR,0.00,VWS V14.01,2013-01-16 21:10:00,
2013-01-16 13:20:00,74.1,41.6,30.23,NNW,330,0.0,9.1,31,0.00,,CLR,0.00,VWS V14.01,2013-01-16 21:20:00,
2013-01-16 13:30:00,73.6,41.1,30.23,North,8,0.0,6.4,31,0.00,,CLR,0.00,VWS V14.01,2013-01-16 21:30:00,
2013-01-16 13:40:00,74.8,42.2,30.23,North,7,0.0,4.8,31,0.00,,CLR,0.00,VWS V14.01,2013-01-16 21:40:00,
2013-01-16 13:50:00,74.7,42.0,30.23,ENE,61,3.2,7.5,31,0.00,,CLR,0.00,VWS V14.01,2013-01-16 21:50:00,
2013-01-16 14:00:00,75.9,43.1,30.23,SW,229,7.0,8.1,31,0.00,,CLR,0.00,VWS V14.01,2013-01-16 22:00:00,
2013-01-16 14:10:00,75.2,42.5,30.23,South,174,3.2,7.0,31,0.00,,CLR,0.00,VWS V14.01,2013-01-16 22:10:00,
2013-01-16 14:20:00,75.0,42.4,30.23,SSW,205,3.2,7.0,31,0.00,,CLR,0.00,VWS V14.01,2013-01-16 22:20:00,
2013-01-16 14:30:00,74.8,42.2,30.23,WSW,238,4.8,7.0,31,0.00,,CLR,0.00,VWS V14.01,2013-01-16 22:30:00,
2013-01-16 14:40:00,74.5,41.9,30.23,WSW,255,6.4,9.1,31,0.00,,CLR,0.00,VWS V14.01,2013-01-16 22:40:00,
2013-01-16 14:50:00,74.1,41.6,30.23,SSW,200,4.8,6.4,31,0.00,,CLR,0.00,VWS V14.01,2013-01-16 22:50:00,
2013-01-16 15:00:00,73.2,41.6,30.23,SW,215,5.9,7.5,32,0.00,,CLR,0.00,VWS V14.01,2013-01-16 23:00:00,
2013-01-16 15:10:00,73.0,41.5,30.23,West,275,4.3,9.1,32,0.00,,CLR,0.00,VWS V14.01,2013-01-16 23:10:00,
2013-01-16 15:20:00,73.4,41.0,30.20,SW,227,4.3,6.4,31,0.00,,CLR,0.00,VWS V14.01,2013-01-16 23:20:00,
2013-01-16 15:30:00,72.7,41.2,30.20,SW,234,5.9,7.5,32,0.00,,CLR,0.00,VWS V14.01,2013-01-16 23:30:00,
2013-01-16 15:40:00,71.4,40.0,30.23,SW,232,3.8,6.4,32,0.00,,CLR,0.00,VWS V14.01,2013-01-16 23:40:00,
2013-01-16 15:50:00,70.2,39.0,30.23,West,263,4.3,7.5,32,0.00,,CLR,0.00,VWS V14.01,2013-01-16 23:50:00,
2013-01-16 16:00:00,69.3,39.0,30.23,SW,228,2.7,6.4,33,0.00,,CLR,0.00,VWS V14.01,2013-01-17 00:00:00,
2013-01-16 16:10:00,68.7,38.5,30.23,SW,235,0.0,4.8,33,0.00,,CLR,0.00,VWS V14.01,2013-01-17 00:10:00,
2013-01-16 16:20:00,68.2,38.0,30.23,SSW,196,4.8,4.8,33,0.00,,CLR,0.00,VWS V14.01,2013-01-17 00:20:00,
2013-01-16 16:30:00,67.5,37.4,30.23,WSW,248,3.2,6.4,33,0.00,,CLR,0.00,VWS V14.01,2013-01-17 00:30:00,
2013-01-16 16:40:00,66.9,36.9,30.23,WSW,247,0.0,3.2,33,0.00,,CLR,0.00,VWS V14.01,2013-01-17 00:40:00,
2013-01-16 16:50:00,66.4,36.4,30.23,SW,223,3.2,6.4,33,0.00,,CLR,0.00,VWS V14.01,2013-01-17 00:50:00,
2013-01-16 17:00:00,65.7,35.8,30.23,West,259,4.3,4.8,33,0.00,,CLR,0.00,VWS V14.01,2013-01-17 01:00:00,
2013-01-16 17:10:00,64.8,35.0,30.23,SW,234,0.0,4.3,33,0.00,,CLR,0.00,VWS V14.01,2013-01-17 01:10:00,
2013-01-16 17:20:00,63.7,34.8,30.23,WNW,301,0.0,3.8,34,0.00,,CLR,0.00,VWS V14.01,2013-01-17 01:20:00,
2013-01-16 17:30:00,63.0,34.2,30.23,SW,218,2.7,3.2,34,0.00,,CLR,0.00,VWS V14.01,2013-01-17 01:30:00,
2013-01-16 17:40:00,61.9,33.2,30.23,SSW,194,0.0,3.8,34,0.00,,CLR,0.00,VWS V14.01,2013-01-17 01:40:00,
2013-01-16 17:50:00,60.6,32.8,30.23,WNW,282,2.7,4.3,35,0.00,,CLR,0.00,VWS V14.01,2013-01-17 01:50:00,
2013-01-16 18:00:00,59.7,32.0,30.23,WSW,246,0.0,3.8,35,0.00,,CLR,0.00,VWS V14.01,2013-01-17 02:00:00,
2013-01-16 18:10:00,58.8,31.2,30.23,WNW,288,3.2,4.3,35,0.00,,CLR,0.00,VWS V14.01,2013-01-17 02:10:00,
2013-01-16 18:20:00,57.9,30.5,30.23,West,260,3.8,4.3,35,0.00,,CLR,0.00,VWS V14.01,2013-01-17 02:20:00,
2013-01-16 18:30:00,57.2,29.8,30.23,SW,228,4.3,4.8,35,0.00,,CLR,0.00,VWS V14.01,2013-01-17 02:30:00,
2013-01-16 18:40:00,56.7,29.3,30.23,WSW,256,4.8,5.9,35,0.00,,CLR,0.00,VWS V14.01,2013-01-17 02:40:00,
2013-01-16 18:50:00,56.1,28.9,30.23,West,279,3.8,5.9,35,0.00,,CLR,0.00,VWS V14.01,2013-01-17 02:50:00,
2013-01-16 19:00:00,55.6,28.4,30.23,West,269,4.3,6.4,35,0.00,,CLR,0.00,VWS V14.01,2013-01-17 03:00:00,
2013-01-16 19:10:00,55.2,28.8,30.23,West,263,3.2,7.5,36,0.00,,CLR,0.00,VWS V14.01,2013-01-17 03:10:00,
2013-01-16 19:20:00,54.7,28.3,30.23,WSW,257,5.9,6.4,36,0.00,,CLR,0.00,VWS V14.01,2013-01-17 03:20:00,
2013-01-16 19:30:00,54.5,28.1,30.23,WSW,258,4.8,5.9,36,0.00,,CLR,0.00,VWS V14.01,2013-01-17 03:30:00,
2013-01-16 19:40:00,54.3,28.0,30.23,WNW,302,0.0,7.0,36,0.00,,CLR,0.00,VWS V14.01,2013-01-17 03:40:00,
2013-01-16 19:50:00,54.0,27.6,30.20,West,275,0.0,3.2,36,0.00,,CLR,0.00,VWS V14.01,2013-01-17 03:50:00,
2013-01-16 20:00:00,53.4,27.1,30.20,ESE,110,2.7,4.8,36,0.00,,CLR,0.00,VWS V14.01,2013-01-17 04:00:00,
2013-01-16 20:10:00,53.1,26.8,30.20,ESE,110,0.0,2.7,36,0.00,,CLR,0.00,VWS V14.01,2013-01-17 04:10:00,
2013-01-16 20:20:00,52.3,26.2,30.20,ESE,110,0.0,2.7,36,0.00,,CLR,0.00,VWS V14.01,2013-01-17 04:20:00,
2013-01-16 20:30:00,51.4,26.0,30.20,ESE,110,0.0,3.2,37,0.00,,CLR,0.00,VWS V14.01,2013-01-17 04:30:00,
2013-01-16 20:40:00,50.5,25.2,30.20,ESE,118,4.3,4.3,37,0.00,,CLR,0.00,VWS V14.01,2013-01-17 04:40:00,
2013-01-16 20:50:00,50.0,24.8,30.20,NNW,343,0.0,6.4,37,0.00,,CLR,0.00,VWS V14.01,2013-01-17 04:50:00,
2013-01-16 21:00:00,49.8,24.6,30.20,NNW,346,0.0,3.8,37,0.00,,CLR,0.00,VWS V14.01,2013-01-17 05:00:00,
2013-01-16 21:10:00,49.3,24.1,30.20,WNW,300,0.0,5.4,37,0.00,,CLR,0.00,VWS V14.01,2013-01-17 05:10:00,
2013-01-16 21:20:00,49.3,24.1,30.20,WNW,296,0.0,3.2,37,0.00,,CLR,0.00,VWS V14.01,2013-01-17 05:20:00,
2013-01-16 21:30:00,49.8,24.6,30.20,SSE,157,0.0,4.3,37,0.00,,CLR,0.00,VWS V14.01,2013-01-17 05:30:00,
2013-01-16 21:40:00,49.6,24.5,30.20,NE,45,0.0,4.8,37,0.00,,CLR,0.00,VWS V14.01,2013-01-17 05:40:00,
2013-01-16 21:50:00,49.1,24.0,30.20,NW,319,0.0,4.3,37,0.00,,CLR,0.00,VWS V14.01,2013-01-17 05:50:00,
2013-01-16 22:00:00,48.7,23.6,30.20,WNW,295,3.8,4.8,37,0.00,,CLR,0.00,VWS V14.01,2013-01-17 06:00:00,
2013-01-16 22:10:00,48.7,23.6,30.20,NW,305,0.0,3.8,37,0.00,,CLR,0.00,VWS V14.01,2013-01-17 06:10:00,
2013-01-16 22:20:00,48.6,23.5,30.20,NW,305,0.0,0.0,37,0.00,,CLR,0.00,VWS V14.01,2013-01-17 06:20:00,
2013-01-16 22:30:00,48.2,23.2,30.20,NNW,327,0.0,3.2,37,0.00,,CLR,0.00,VWS V14.01,2013-01-17 06:30:00,
2013-01-16 22:40:00,47.8,22.9,30.20,NNE,12,0.0,3.8,37,0.00,,CLR,0.00,VWS V14.01,2013-01-17 06:40:00,
2013-01-16 22:50:00,47.7,22.7,30.20,WNW,299,0.0,3.2,37,0.00,,CLR,0.00,VWS V14.01,2013-01-17 06:50:00,
2013-01-16 23:00:00,47.5,22.5,30.20,NNW,329,3.2,4.8,37,0.00,,CLR,0.00,VWS V14.01,2013-01-17 07:00:00,
2013-01-16 23:10:00,47.7,22.7,30.20,WNW,301,4.8,4.8,37,0.00,,CLR,0.00,VWS V14.01,2013-01-17 07:10:00,
2013-01-16 23:20:00,49.1,24.0,30.20,West,278,5.9,6.4,37,0.00,,CLR,0.00,VWS V14.01,2013-01-17 07:20:00,
2013-01-16 23:30:00,49.8,24.6,30.20,NW,318,2.7,5.9,37,0.00,,CLR,0.00,VWS V14.01,2013-01-17 07:30:00,
2013-01-16 23:40:00,49.6,24.5,30.20,NW,318,0.0,3.2,37,0.00,,CLR,0.00,VWS V14.01,2013-01-17 07:40:00,
2013-01-16 23:50:00,48.9,23.8,30.20,North,8,3.2,5.9,37,0.00,,CLR,0.00,VWS V14.01,2013-01-17 07:50:00,